createdAt,value
2019-02-22T00:01:11.702Z,8.10
2019-02-22T00:03:43.372Z,8.57
2019-02-22T00:06:15.055Z,9.00
2019-02-22T00:08:46.712Z,8.60
2019-02-22T00:11:18.491Z,8.63
2019-02-22T00:13:50.389Z,8.47
2019-02-22T00:16:22.238Z,7.27
2019-02-22T00:18:53.814Z,7.43
2019-02-22T00:21:25.445Z,7.07
2019-02-22T00:23:57.021Z,9.43
2019-02-22T00:26:28.618Z,8.73
2019-02-22T00:29:00.225Z,7.17
2019-02-22T00:31:31.848Z,7.13
2019-02-22T00:34:03.462Z,7.20
2019-02-22T00:36:35.106Z,6.57
2019-02-22T00:39:06.780Z,6.97
2019-02-22T00:41:38.435Z,6.70
2019-02-22T00:44:10.025Z,7.27
2019-02-22T00:46:41.614Z,6.70
2019-02-22T00:49:13.218Z,6.87
2019-02-22T00:51:44.882Z,6.87
2019-02-22T00:54:16.504Z,5.90
2019-02-22T00:56:48.094Z,5.30
2019-02-22T00:59:19.772Z,4.80
2019-02-22T01:01:51.460Z,5.20
2019-02-22T01:04:23.125Z,5.00
2019-02-22T01:06:54.701Z,4.43
2019-02-22T01:09:26.393Z,2.50
2019-02-22T01:11:58.095Z,2.70
2019-02-22T01:14:29.703Z,3.40
2019-02-22T01:17:01.363Z,4.00
2019-02-22T01:19:33.056Z,3.50
2019-02-22T01:22:04.746Z,4.30
2019-02-22T01:24:36.402Z,3.27
2019-02-22T01:27:08.053Z,3.40
2019-02-22T01:29:39.727Z,3.27
2019-02-22T01:32:11.298Z,3.93
2019-02-22T01:34:43.220Z,3.47
2019-02-22T01:37:14.794Z,3.30
2019-02-22T01:39:46.391Z,3.07
2019-02-22T01:42:18.073Z,3.17
2019-02-22T01:44:49.859Z,2.83
2019-02-22T01:47:21.442Z,3.43
2019-02-22T01:49:54.094Z,3.47
2019-02-22T01:52:25.659Z,3.57
2019-02-22T01:54:57.266Z,3.50
2019-02-22T01:57:28.837Z,3.90
2019-02-22T02:00:00.563Z,4.23
2019-02-22T02:02:32.601Z,4.10
2019-02-22T02:05:04.351Z,3.97
2019-02-22T02:07:35.986Z,3.60
2019-02-22T02:10:07.655Z,4.40
2019-02-22T02:12:39.237Z,3.30
2019-02-22T02:15:10.893Z,3.70
2019-02-22T02:17:42.558Z,3.50
2019-02-22T02:20:14.203Z,3.90
2019-02-22T02:22:46.896Z,3.83
2019-02-22T02:25:18.588Z,3.60
2019-02-22T02:27:50.443Z,4.07
2019-02-22T02:30:22.391Z,3.80
2019-02-22T02:32:53.969Z,4.87
2019-02-22T02:35:25.547Z,3.93
2019-02-22T02:37:57.134Z,4.57
2019-02-22T02:40:29.795Z,4.17
2019-02-22T02:43:01.382Z,4.50
2019-02-22T02:45:33.037Z,4.80
2019-02-22T02:48:04.731Z,4.67
2019-02-22T02:50:36.331Z,3.47
2019-02-22T02:53:07.978Z,5.03
2019-02-22T02:55:39.646Z,4.40
2019-02-22T02:58:11.287Z,4.40
2019-02-22T03:00:42.859Z,4.30
2019-02-22T03:03:14.541Z,4.17
2019-02-22T03:06:03.216Z,4.23
2019-02-22T03:08:36.660Z,4.70
2019-02-22T03:11:19.665Z,4.10
2019-02-22T03:13:41.571Z,5.20
2019-02-22T03:16:13.216Z,5.80
2019-02-22T03:18:44.858Z,4.93
2019-02-22T03:21:16.581Z,5.00
2019-02-22T03:23:48.168Z,4.30
2019-02-22T03:26:19.775Z,4.23
2019-02-22T03:28:52.451Z,4.43
2019-02-22T03:31:24.055Z,4.80
2019-02-22T03:33:55.630Z,4.63
2019-02-22T03:36:27.199Z,4.50
2019-02-22T03:38:58.858Z,4.50
2019-02-22T03:41:33.359Z,4.50
2019-02-22T03:44:03.782Z,4.80
2019-02-22T03:46:35.381Z,4.90
2019-02-22T03:49:07.920Z,4.80
2019-02-22T03:51:39.575Z,4.83
2019-02-22T03:54:11.166Z,4.67
2019-02-22T03:56:42.839Z,5.30
2019-02-22T03:59:14.400Z,5.20
2019-02-22T04:01:46.298Z,5.77
2019-02-22T04:04:17.873Z,5.67
2019-02-22T04:06:49.475Z,5.03
2019-02-22T04:09:21.117Z,6.10
2019-02-22T04:11:52.790Z,5.70
2019-02-22T04:14:24.438Z,5.27
2019-02-22T04:16:56.099Z,6.00
2019-02-22T04:19:27.748Z,5.73
2019-02-22T04:21:59.356Z,8.43
2019-02-22T04:24:30.967Z,9.03
2019-02-22T04:27:02.547Z,11.83
2019-02-22T04:29:34.232Z,12.83
2019-02-22T04:32:05.892Z,8.73
2019-02-22T04:34:37.472Z,9.57
2019-02-22T04:37:09.086Z,9.83
2019-02-22T04:39:40.757Z,13.47
2019-02-22T04:42:12.363Z,46.40
2019-02-22T04:44:43.951Z,27.47
2019-02-22T04:47:15.575Z,64.67
2019-02-22T04:49:47.339Z,15.47
2019-02-22T04:52:19.231Z,13.63
2019-02-22T04:54:50.803Z,4.73
2019-02-22T04:57:22.380Z,5.17
2019-02-22T04:59:53.957Z,6.90
2019-02-22T05:02:25.534Z,7.13
2019-02-22T05:04:57.192Z,8.07
2019-02-22T05:07:28.793Z,11.77
2019-02-22T05:10:00.461Z,7.97
2019-02-22T05:12:32.124Z,9.90
2019-02-22T05:15:12.584Z,6.13
2019-02-22T05:17:37.150Z,5.53
2019-02-22T05:20:08.716Z,6.43
2019-02-22T05:22:40.366Z,6.70
2019-02-22T05:25:11.957Z,7.67
2019-02-22T05:27:43.629Z,6.23
2019-02-22T05:30:15.639Z,5.57
2019-02-22T05:32:47.384Z,6.77
2019-02-22T05:35:19.263Z,5.87
2019-02-22T05:37:51.829Z,4.80
2019-02-22T05:40:23.408Z,5.20
2019-02-22T05:42:55.065Z,5.23
2019-02-22T05:45:26.647Z,10.57
2019-02-22T05:47:58.334Z,13.47
2019-02-22T05:50:29.985Z,5.50
2019-02-22T05:53:01.634Z,9.50
2019-02-22T05:55:33.286Z,8.63
2019-02-22T05:58:04.890Z,9.73
2019-02-22T06:00:36.532Z,9.27
2019-02-22T06:03:08.114Z,7.40
2019-02-22T06:05:39.709Z,9.77
2019-02-22T06:08:11.337Z,8.33
2019-02-22T06:10:42.961Z,5.43
2019-02-22T06:13:14.565Z,5.63
2019-02-22T06:15:46.799Z,4.73
2019-02-22T06:18:18.555Z,5.03
2019-02-22T06:20:50.507Z,5.43
2019-02-22T06:23:22.442Z,5.80
2019-02-22T06:25:54.017Z,4.70
2019-02-22T06:28:25.632Z,9.40
2019-02-22T06:30:57.441Z,6.90
2019-02-22T06:33:29.057Z,8.60
2019-02-22T06:36:00.645Z,9.07
2019-02-22T06:38:32.298Z,9.50
2019-02-22T06:41:03.873Z,10.43
2019-02-22T06:43:35.470Z,10.90
2019-02-22T06:46:07.072Z,7.73
2019-02-22T06:48:38.683Z,12.27
2019-02-22T06:51:10.276Z,11.77
2019-02-22T06:53:41.877Z,12.87
2019-02-22T06:56:13.446Z,10.93
2019-02-22T06:58:45.044Z,12.43
2019-02-22T07:01:16.685Z,14.23
2019-02-22T07:03:48.621Z,7.00
2019-02-22T07:06:21.920Z,12.30
2019-02-22T07:08:53.536Z,7.87
2019-02-22T07:11:31.889Z,4.50
2019-02-22T07:14:03.469Z,6.80
2019-02-22T07:16:35.127Z,5.93
2019-02-22T07:19:06.810Z,11.03
2019-02-22T07:21:51.633Z,7.43
2019-02-22T07:24:11.853Z,6.70
2019-02-22T07:26:43.427Z,11.53
2019-02-22T07:29:15.043Z,8.37
2019-02-22T07:31:46.632Z,9.07
2019-02-22T07:34:18.618Z,7.27
2019-02-22T07:36:50.486Z,8.57
2019-02-22T07:39:27.973Z,6.97
2019-02-22T07:41:55.796Z,7.53
2019-02-22T07:44:27.486Z,6.10
2019-02-22T07:46:59.142Z,5.17
2019-02-22T07:49:30.814Z,5.50
2019-02-22T07:52:02.383Z,8.87
2019-02-22T07:54:34.039Z,6.97
2019-02-22T07:57:05.627Z,9.77
2019-02-22T07:59:37.210Z,7.90
2019-02-22T08:02:08.875Z,13.17
2019-02-22T08:04:40.549Z,9.40
2019-02-22T08:07:12.160Z,8.10
2019-02-22T08:09:43.754Z,10.90
2019-02-22T08:12:15.517Z,6.17
2019-02-22T08:14:47.470Z,7.30
2019-02-22T08:17:19.312Z,2.83
2019-02-22T08:19:50.971Z,3.57
2019-02-22T08:22:22.622Z,4.80
2019-02-22T08:24:58.135Z,6.13
2019-02-22T08:27:31.656Z,4.23
2019-02-22T08:30:03.742Z,3.97
2019-02-22T08:32:37.026Z,5.20
2019-02-22T08:35:09.076Z,3.13
2019-02-22T08:37:41.538Z,4.67
2019-02-22T08:40:14.514Z,5.37
2019-02-22T08:42:48.075Z,6.60
2019-02-22T08:45:20.099Z,5.77
2019-02-22T08:47:51.848Z,5.00
2019-02-22T08:50:25.000Z,6.83
2019-02-22T08:52:57.076Z,6.57
2019-02-22T08:55:29.196Z,8.07
2019-02-22T08:58:01.114Z,8.87
2019-02-22T09:00:32.998Z,5.17
2019-02-22T09:03:04.748Z,4.20
2019-02-22T09:05:36.715Z,5.90
2019-02-22T09:08:08.546Z,4.87
2019-02-22T09:10:40.236Z,3.47
2019-02-22T09:13:11.961Z,3.77
2019-02-22T09:15:43.644Z,4.83
2019-02-22T09:18:15.524Z,4.67
2019-02-22T09:20:47.469Z,4.33
2019-02-22T09:23:19.953Z,4.57
2019-02-22T09:25:53.232Z,10.87
2019-02-22T09:28:27.023Z,8.33
2019-02-22T09:31:01.564Z,6.17
2019-02-22T09:33:36.113Z,10.23
2019-02-22T09:36:12.260Z,5.73
2019-02-22T09:38:46.893Z,4.10
2019-02-22T09:41:20.386Z,4.70
2019-02-22T09:43:55.618Z,7.03
2019-02-22T09:46:29.428Z,4.83
2019-02-22T09:49:04.669Z,5.30
2019-02-22T09:51:37.020Z,7.07
2019-02-22T09:54:08.945Z,6.60
2019-02-22T09:56:40.964Z,18.13
2019-02-22T09:59:15.931Z,7.37
2019-02-22T10:01:48.040Z,3.63
2019-02-22T10:04:19.880Z,5.40
2019-02-22T10:06:51.731Z,4.87
2019-02-22T10:09:23.396Z,4.67
2019-02-22T10:11:54.999Z,5.30
2019-02-22T10:14:30.651Z,5.63
2019-02-22T10:17:02.772Z,5.10
2019-02-22T10:19:34.889Z,4.87
2019-02-22T10:22:06.651Z,10.60
2019-02-22T10:24:38.543Z,12.97
2019-02-22T10:27:12.113Z,12.07
2019-02-22T10:29:44.051Z,3.57
2019-02-22T10:32:16.648Z,3.97
2019-02-22T10:34:49.822Z,3.73
2019-02-22T10:37:21.987Z,2.70
2019-02-22T10:39:53.764Z,7.57
2019-02-22T10:42:26.540Z,5.03
2019-02-22T10:44:58.554Z,5.10
2019-02-22T10:47:30.485Z,4.77
2019-02-22T10:50:04.780Z,4.67
2019-02-22T10:52:38.053Z,4.53
2019-02-22T10:55:10.622Z,3.73
2019-02-22T10:57:42.976Z,8.13
2019-02-22T11:00:15.407Z,3.60
2019-02-22T11:02:47.336Z,5.90
2019-02-22T11:05:18.995Z,4.30
2019-02-22T11:07:50.699Z,3.20
2019-02-22T11:10:25.509Z,5.33
2019-02-22T11:12:59.237Z,10.33
2019-02-22T11:15:34.837Z,5.63
2019-02-22T11:18:09.715Z,5.93
2019-02-22T11:20:43.770Z,4.77
2019-02-22T11:23:19.786Z,7.70
2019-02-22T11:25:53.295Z,5.07
2019-02-22T11:28:26.587Z,6.50
2019-02-22T11:30:59.693Z,10.30
2019-02-22T11:33:34.119Z,5.83
2019-02-22T11:36:06.240Z,4.10
2019-02-22T11:38:39.048Z,5.37
2019-02-22T11:41:15.396Z,4.80
2019-02-22T11:43:47.341Z,4.27
2019-02-22T11:46:19.446Z,4.70
2019-02-22T11:48:51.352Z,5.00
2019-02-22T11:51:25.894Z,6.80
2019-02-22T11:53:57.605Z,4.07
2019-02-22T11:56:29.757Z,9.00
2019-02-22T11:59:01.706Z,3.27
2019-02-22T12:01:33.424Z,4.80
2019-02-22T12:04:05.409Z,20.47
2019-02-22T12:06:37.650Z,28.87
2019-02-22T12:09:09.737Z,24.30
2019-02-22T12:11:42.742Z,10.20
2019-02-22T12:14:14.962Z,21.90
2019-02-22T12:16:48.287Z,22.20
2019-02-22T12:19:20.088Z,3.47
2019-02-22T12:21:52.595Z,4.57
2019-02-22T12:24:24.463Z,6.23
2019-02-22T12:26:56.749Z,5.70
2019-02-22T12:29:28.553Z,3.60
2019-02-22T12:32:00.541Z,6.50
2019-02-22T12:34:32.372Z,63.17
2019-02-22T12:37:04.853Z,4.83
2019-02-22T12:39:36.976Z,7.20
2019-02-22T12:42:08.808Z,6.70
2019-02-22T12:44:41.187Z,3.27
2019-02-22T12:47:14.391Z,3.10
2019-02-22T12:49:46.556Z,3.53
2019-02-22T12:52:18.381Z,3.20
2019-02-22T12:54:50.762Z,2.60
2019-02-22T12:57:22.814Z,4.87
2019-02-22T12:59:54.702Z,4.70
2019-02-22T13:02:26.541Z,139.43
2019-02-22T13:05:00.369Z,4.40
2019-02-22T13:07:32.229Z,15.33
2019-02-22T13:10:03.915Z,51.37
2019-02-22T13:12:35.704Z,5.07
2019-02-22T13:15:14.222Z,3.57
2019-02-22T13:17:42.736Z,3.77
2019-02-22T13:20:16.411Z,6.87
2019-02-22T13:22:52.303Z,39.03
2019-02-22T13:25:23.994Z,33.57
2019-02-22T13:27:55.658Z,12.00
2019-02-22T13:30:27.357Z,21.47
2019-02-22T13:32:59.022Z,16.43
2019-02-22T13:35:30.816Z,4.60
2019-02-22T13:38:02.422Z,5.43
2019-02-22T13:40:34.074Z,6.23
2019-02-22T13:43:05.666Z,5.73
2019-02-22T13:45:37.256Z,29.07
2019-02-22T13:48:08.852Z,5.63
2019-02-22T13:50:40.523Z,105.67
2019-02-22T13:53:12.126Z,26.77
2019-02-22T13:55:43.749Z,23.50
2019-02-22T13:58:15.341Z,58.10
2019-02-22T14:00:47.945Z,183.03
2019-02-22T14:03:21.286Z,111.93
2019-02-22T14:05:52.962Z,41.53
2019-02-22T14:08:24.542Z,47.13
2019-02-22T14:10:56.150Z,49.53
2019-02-22T14:13:27.799Z,9.43
2019-02-22T14:15:59.399Z,18.97
2019-02-22T14:18:31.581Z,37.97
2019-02-22T14:21:03.185Z,38.77
2019-02-22T14:23:34.844Z,7.50
2019-02-22T14:26:06.517Z,18.83
2019-02-22T14:28:38.188Z,5.80
2019-02-22T14:31:09.874Z,40.47
2019-02-22T14:33:41.533Z,13.27
2019-02-22T14:36:13.213Z,15.10
2019-02-22T14:38:44.869Z,9.70
2019-02-22T14:41:16.771Z,26.17
2019-02-22T14:43:48.363Z,25.40
2019-02-22T14:46:25.853Z,22.30
2019-02-22T14:48:53.505Z,25.03
2019-02-22T14:51:25.578Z,249.40
2019-02-22T14:53:57.703Z,36.87
2019-02-22T14:56:29.302Z,10.30
2019-02-22T14:59:01.007Z,18.27
2019-02-22T15:01:35.438Z,15.87
2019-02-22T15:04:06.258Z,16.60
2019-02-22T15:06:40.399Z,10.60
2019-02-22T15:09:12.646Z,14.47
2019-02-22T15:11:44.446Z,6.97
2019-02-22T15:14:18.064Z,27.27
2019-02-22T15:16:53.476Z,24.10
2019-02-22T15:19:25.144Z,8.37
2019-02-22T15:21:56.987Z,10.33
2019-02-22T15:24:28.915Z,15.73
2019-02-22T15:27:00.887Z,23.73
2019-02-22T15:29:32.577Z,13.80
2019-02-22T15:32:04.253Z,12.13
2019-02-22T15:34:35.925Z,11.50
2019-02-22T15:37:07.686Z,13.93
2019-02-22T15:39:39.347Z,13.93
2019-02-22T15:42:11.085Z,19.30
2019-02-22T15:44:42.680Z,21.40
2019-02-22T15:47:14.382Z,21.43
2019-02-22T15:49:48.566Z,21.97
2019-02-22T15:52:20.096Z,29.40
2019-02-22T15:54:51.714Z,34.50
2019-02-22T15:57:25.313Z,17.00
2019-02-22T15:59:56.961Z,20.10
2019-02-22T16:02:28.668Z,16.63
2019-02-22T16:05:07.026Z,21.13
2019-02-22T16:07:44.762Z,18.40
2019-02-22T16:10:12.138Z,20.13
2019-02-22T16:12:44.925Z,28.00
2019-02-22T16:15:16.998Z,22.20
2019-02-22T16:17:48.693Z,33.93
2019-02-22T16:20:20.426Z,27.50
2019-02-22T16:22:52.927Z,28.97
2019-02-22T16:25:25.230Z,44.97
2019-02-22T16:27:57.444Z,34.53
2019-02-22T16:30:32.315Z,33.50
2019-02-22T16:33:04.002Z,34.70
2019-02-22T16:35:35.682Z,22.57
2019-02-22T16:38:07.259Z,26.30
2019-02-22T16:40:38.912Z,30.97
2019-02-22T16:43:10.587Z,56.43
2019-02-22T16:45:42.244Z,78.40
2019-02-22T16:48:14.955Z,65.43
2019-02-22T16:50:47.063Z,38.93
2019-02-22T16:53:18.901Z,28.90
2019-02-22T16:55:51.027Z,26.83
2019-02-22T16:58:22.796Z,28.40
2019-02-22T17:00:54.405Z,34.40
2019-02-22T17:03:26.394Z,56.47
2019-02-22T17:05:58.022Z,74.23
2019-02-22T17:08:30.351Z,79.50
2019-02-22T17:11:02.324Z,79.07
2019-02-22T17:13:33.930Z,79.63
2019-02-22T17:16:05.563Z,53.43
2019-02-22T17:18:37.338Z,46.97
2019-02-22T17:21:08.944Z,36.07
2019-02-22T17:23:40.564Z,70.77
2019-02-22T17:26:15.447Z,55.10
2019-02-22T17:28:47.128Z,60.90
2019-02-22T17:31:18.920Z,98.80
2019-02-22T17:33:50.865Z,97.40
2019-02-22T17:36:26.770Z,65.50
2019-02-22T17:38:55.859Z,49.27
2019-02-22T17:41:27.525Z,47.97
2019-02-22T17:43:59.201Z,44.57
2019-02-22T17:46:30.783Z,49.30
2019-02-22T17:49:02.404Z,61.57
2019-02-22T17:51:35.069Z,51.57
2019-02-22T17:54:06.666Z,59.90
2019-02-22T17:56:38.268Z,66.30
2019-02-22T17:59:09.852Z,49.93
2019-02-22T18:01:41.535Z,30.07
2019-02-22T18:04:13.207Z,36.47
2019-02-22T18:06:45.305Z,46.57
2019-02-22T18:09:17.067Z,70.23
2019-02-22T18:11:48.933Z,47.97
2019-02-22T18:14:20.887Z,56.83
2019-02-22T18:16:52.492Z,33.20
2019-02-22T18:19:24.648Z,44.83
2019-02-22T18:21:56.898Z,34.07
2019-02-22T18:24:29.065Z,30.60
2019-02-22T18:27:00.981Z,28.27
2019-02-22T18:29:35.468Z,32.20
2019-02-22T18:32:05.997Z,35.63
2019-02-22T18:34:37.671Z,28.77
2019-02-22T18:37:09.342Z,31.40
2019-02-22T18:39:40.974Z,35.23
2019-02-22T18:42:12.568Z,34.63
2019-02-22T18:44:44.266Z,34.20
2019-02-22T18:47:19.397Z,27.37
2019-02-22T18:49:49.623Z,21.47
2019-02-22T18:52:21.212Z,26.20
2019-02-22T18:54:53.049Z,35.57
2019-02-22T18:57:24.848Z,37.07
2019-02-22T18:59:56.514Z,25.30
2019-02-22T19:02:28.177Z,23.80
2019-02-22T19:04:59.884Z,23.07
2019-02-22T19:07:31.607Z,28.43
2019-02-22T19:10:03.445Z,24.63
2019-02-22T19:12:35.131Z,29.03
2019-02-22T19:15:07.338Z,25.83
2019-02-22T19:17:39.033Z,25.67
2019-02-22T19:20:13.393Z,25.30
2019-02-22T19:22:45.102Z,30.70
2019-02-22T19:25:18.304Z,28.43
2019-02-22T19:27:50.706Z,27.13
2019-02-22T19:30:22.313Z,28.93
2019-02-22T19:32:54.174Z,33.03
2019-02-22T19:35:25.790Z,30.37
2019-02-22T19:37:57.467Z,38.10
2019-02-22T19:40:29.108Z,42.97
2019-02-22T19:43:00.886Z,54.57
2019-02-22T19:45:32.556Z,61.67
2019-02-22T19:48:04.263Z,77.27
2019-02-22T19:50:41.476Z,80.33
2019-02-22T19:53:09.551Z,105.53
2019-02-22T19:55:41.210Z,105.00
2019-02-22T19:58:12.886Z,108.17
2019-02-22T20:00:45.836Z,96.87
2019-02-22T20:03:17.676Z,119.57
2019-02-22T20:05:49.397Z,95.90
2019-02-22T20:08:21.174Z,77.13
2019-02-22T20:10:52.808Z,66.87
2019-02-22T20:13:24.480Z,77.30
2019-02-22T20:15:56.157Z,78.07
2019-02-22T20:18:28.602Z,77.30
2019-02-22T20:21:00.553Z,77.07
2019-02-22T20:23:33.114Z,94.83
2019-02-22T20:26:06.218Z,87.87
2019-02-22T20:28:38.066Z,74.53
2019-02-22T20:31:19.961Z,65.07
2019-02-22T20:33:44.385Z,61.40
2019-02-22T20:36:16.064Z,55.60
2019-02-22T20:38:47.740Z,61.83
2019-02-22T20:41:19.411Z,54.37
2019-02-22T20:43:51.129Z,44.97
2019-02-22T20:46:24.983Z,37.63
2019-02-22T20:49:03.395Z,44.93
2019-02-22T20:51:35.911Z,64.53
2019-02-22T20:54:07.627Z,62.20
2019-02-22T20:56:39.342Z,52.33
2019-02-22T20:59:10.960Z,54.20
2019-02-22T21:01:43.278Z,62.20
2019-02-22T21:04:16.610Z,64.27
2019-02-22T21:06:48.209Z,79.70
2019-02-22T21:09:20.061Z,77.70
2019-02-22T21:11:51.983Z,71.03
2019-02-22T21:14:23.838Z,66.90
2019-02-22T21:16:55.476Z,132.27
2019-02-22T21:19:27.074Z,151.43
2019-02-22T21:21:59.648Z,93.37
2019-02-22T21:24:31.271Z,91.73
2019-02-22T21:27:03.126Z,82.93
2019-02-22T21:29:34.801Z,90.90
2019-02-22T21:32:06.474Z,84.73
2019-02-22T21:34:38.154Z,82.30
2019-02-22T21:37:09.757Z,61.53
2019-02-22T21:39:41.441Z,51.50
2019-02-22T21:42:20.050Z,51.60
2019-02-22T21:44:48.060Z,50.90
2019-02-22T21:47:19.740Z,48.50
2019-02-22T21:49:51.365Z,49.70
2019-02-22T21:52:23.012Z,48.73
2019-02-22T21:54:54.684Z,46.53
2019-02-22T21:57:26.380Z,46.97
2019-02-22T21:59:58.047Z,50.87
2019-02-22T22:02:29.631Z,47.50
2019-02-22T22:05:01.310Z,48.27
2019-02-22T22:07:33.088Z,45.97
2019-02-22T22:10:04.902Z,49.03
2019-02-22T22:12:36.568Z,47.10
2019-02-22T22:15:10.577Z,49.10
2019-02-22T22:17:42.023Z,53.57
2019-02-22T22:20:13.628Z,51.33
2019-02-22T22:22:45.205Z,42.97
2019-02-22T22:25:16.966Z,34.90
2019-02-22T22:27:48.570Z,35.47
2019-02-22T22:30:20.250Z,36.30
2019-02-22T22:32:52.768Z,31.97
2019-02-22T22:35:24.446Z,27.90
2019-02-22T22:37:56.051Z,27.37
2019-02-22T22:40:27.720Z,24.30
2019-02-22T22:42:59.310Z,23.83
2019-02-22T22:45:31.021Z,22.93
2019-02-22T22:48:02.729Z,21.37
2019-02-22T22:50:34.325Z,21.03
2019-02-22T22:53:06.004Z,20.50
2019-02-22T22:55:37.604Z,22.73
2019-02-22T22:58:09.273Z,22.90
2019-02-22T23:01:06.049Z,21.00
2019-02-22T23:03:38.422Z,23.13
2019-02-22T23:06:11.156Z,24.37
2019-02-22T23:08:42.824Z,59.87
2019-02-22T23:11:14.488Z,91.43
2019-02-22T23:13:46.170Z,107.87
2019-02-22T23:16:18.023Z,80.67
2019-02-22T23:18:49.708Z,41.13
2019-02-22T23:21:22.081Z,28.00
2019-02-22T23:23:53.977Z,29.03
2019-02-22T23:26:25.592Z,35.80
2019-02-22T23:28:57.266Z,47.33
2019-02-22T23:31:28.952Z,55.10
2019-02-22T23:34:00.626Z,57.37
2019-02-22T23:36:32.286Z,65.63
2019-02-22T23:39:04.336Z,122.77
2019-02-22T23:41:37.010Z,75.53
2019-02-22T23:44:08.676Z,88.63
2019-02-22T23:46:40.349Z,46.07
2019-02-22T23:49:16.432Z,39.27
2019-02-22T23:51:48.119Z,44.43
2019-02-22T23:54:19.750Z,59.93
2019-02-22T23:56:51.422Z,51.73
2019-02-22T23:59:23.129Z,52.37
